Time;durP1;ratioP1;P1;durP2;ratioP2;P2;SDS_P1;SDS_P2;PMS_P1;PMS_P2;Temp;Humidity;BMP_temperature;BMP_pressure;BME280_temperature;BME280_humidity;BME280_pressure;Samples;Min_cycle;Max_cycle;Signal;HPM_P1;HPM_P2
2022/07/08 00:00:41;;;;;;;8.18;1.48;;;14.20;99.90;;;;;;5009644;28;20824;-73
2022/07/08 00:03:07;;;;;;;13.73;1.95;;;14.20;99.90;;;;;;5027178;27;20132;-74
2022/07/08 00:05:32;;;;;;;9.88;1.33;;;14.20;99.90;;;;;;5049164;27;20141;-75
2022/07/08 00:07:58;;;;;;;8.00;1.27;;;14.10;99.90;;;;;;5029901;27;20132;-74
2022/07/08 00:10:25;;;;;;;8.27;1.60;;;14.10;99.90;;;;;;5045718;27;20048;-73
2022/07/08 00:12:51;;;;;;;8.40;1.30;;;14.20;99.90;;;;;;5024519;28;20053;-74
2022/07/08 00:15:16;;;;;;;9.70;1.13;;;14.10;99.90;;;;;;5026258;28;20112;-73
2022/07/08 00:17:42;;;;;;;9.57;1.52;;;14.10;99.90;;;;;;5023826;28;20123;-74
2022/07/08 00:20:09;;;;;;;8.85;1.48;;;14.10;99.90;;;;;;5024238;28;20051;-73
2022/07/08 00:22:35;;;;;;;9.38;1.60;;;14.10;99.90;;;;;;5024808;28;20086;-73
2022/07/08 00:25:01;;;;;;;9.80;1.88;;;14.10;99.90;;;;;;5044406;27;20417;-73
2022/07/08 00:27:27;;;;;;;9.25;1.33;;;14.10;99.90;;;;;;5009489;27;20119;-74
2022/07/08 00:29:53;;;;;;;10.88;1.58;;;14.10;99.90;;;;;;5011230;28;20544;-73
2022/07/08 00:32:19;;;;;;;9.02;1.48;;;14.10;99.90;;;;;;5026515;28;20121;-73
2022/07/08 00:34:44;;;;;;;7.78;1.27;;;14.00;99.90;;;;;;5043164;27;20420;-74
2022/07/08 00:37:10;;;;;;;8.52;1.73;;;14.10;99.90;;;;;;5024303;27;20048;-73
2022/07/08 00:39:37;;;;;;;6.50;1.50;;;14.10;99.90;;;;;;5059183;27;20128;-73
2022/07/08 00:42:03;;;;;;;9.02;1.40;;;14.00;99.90;;;;;;5025059;28;20505;-73
2022/07/08 00:44:29;;;;;;;8.57;1.40;;;14.00;99.90;;;;;;5005879;28;20038;-73
2022/07/08 00:46:55;;;;;;;8.02;1.20;;;14.00;99.90;;;;;;5024223;28;20125;-74
2022/07/08 00:49:22;;;;;;;9.85;1.55;;;14.00;99.90;;;;;;5025658;28;20040;-73
2022/07/08 00:51:48;;;;;;;7.43;1.30;;;13.90;99.90;;;;;;5022441;28;20045;-73
2022/07/08 00:54:17;;;;;;;7.95;1.33;;;14.00;99.90;;;;;;5042959;27;20076;-73
2022/07/08 00:56:44;;;;;;;8.80;1.90;;;14.00;99.90;;;;;;5037721;27;20044;-73
2022/07/08 00:59:10;;;;;;;8.48;1.40;;;13.90;99.90;;;;;;5043179;28;20191;-73
2022/07/08 01:01:36;;;;;;;11.27;1.42;;;13.90;99.90;;;;;;5024274;28;20184;-74
2022/07/08 01:04:02;;;;;;;10.13;1.63;;;13.80;99.90;;;;;;5025104;28;20056;-74
2022/07/08 01:06:28;;;;;;;8.93;1.40;;;13.80;99.90;;;;;;5024588;28;20044;-73
2022/07/08 01:08:54;;;;;;;8.00;1.15;;;13.80;99.90;;;;;;5026693;28;20052;-73
2022/07/08 01:11:20;;;;;;;10.77;1.92;;;13.70;99.90;;;;;;5030709;27;21291;-74
2022/07/08 01:13:47;;;;;;;8.20;2.55;;;13.60;99.90;;;;;;5024584;28;20153;-74
2022/07/08 01:16:13;;;;;;;9.10;1.27;;;13.60;99.90;;;;;;5005706;28;20643;-73
2022/07/08 01:18:40;;;;;;;10.82;2.40;;;13.50;99.90;;;;;;5029460;28;20397;-74
2022/07/08 01:21:06;;;;;;;8.73;1.40;;;13.30;99.90;;;;;;5025863;28;20049;-73
2022/07/08 01:23:32;;;;;;;6.90;1.30;;;13.40;99.90;;;;;;5025047;28;20047;-74
2022/07/08 01:25:59;;;;;;;5.57;1.20;;;13.30;99.90;;;;;;5029616;27;20049;-72
2022/07/08 01:28:25;;;;;;;10.20;1.67;;;13.30;99.90;;;;;;5038518;27;20525;-74
2022/07/08 01:30:50;;;;;;;8.82;1.27;;;13.30;99.90;;;;;;5024607;28;20120;-74
2022/07/08 01:33:16;;;;;;;7.13;1.30;;;13.30;99.90;;;;;;5027167;28;20037;-74
2022/07/08 01:35:42;;;;;;;7.47;1.05;;;13.20;99.90;;;;;;5012232;27;20475;-74
2022/07/08 01:38:08;;;;;;;7.18;1.60;;;13.20;99.90;;;;;;5028180;28;20037;-74
2022/07/08 01:40:33;;;;;;;6.35;1.33;;;13.30;99.90;;;;;;5011016;28;20045;-73
2022/07/08 01:42:59;;;;;;;7.55;1.67;;;13.30;99.90;;;;;;5027940;27;20063;-74
2022/07/08 01:45:25;;;;;;;8.50;1.33;;;13.30;99.90;;;;;;5044290;28;20045;-73
2022/07/08 01:47:51;;;;;;;12.35;1.52;;;13.30;99.90;;;;;;5046016;28;20040;-73
2022/07/08 01:50:16;;;;;;;10.98;1.67;;;13.30;99.90;;;;;;5027525;28;20044;-73
2022/07/08 01:52:42;;;;;;;12.60;2.03;;;13.30;99.90;;;;;;5044631;27;20276;-74
2022/07/08 01:55:08;;;;;;;8.63;1.33;;;13.40;99.90;;;;;;5027285;28;20066;-74
2022/07/08 01:57:34;;;;;;;11.52;1.75;;;13.30;99.90;;;;;;5042856;28;20060;-74
2022/07/08 02:00:00;;;;;;;7.30;1.25;;;13.30;99.90;;;;;;5027298;28;20148;-75
2022/07/08 02:02:26;;;;;;;8.43;1.42;;;13.20;99.90;;;;;;5046561;27;20048;-74
2022/07/08 02:04:52;;;;;;;7.00;1.40;;;13.20;99.90;;;;;;5028291;28;20040;-74
2022/07/08 02:07:18;;;;;;;10.68;1.45;;;13.10;99.90;;;;;;5010497;28;20069;-74
2022/07/08 02:09:44;;;;;;;13.02;1.70;;;13.30;99.90;;;;;;5046132;28;20044;-75
2022/07/08 02:12:19;;;;;;;7.40;1.52;;;13.00;99.90;;;;;;5017316;28;20049;-74
2022/07/08 02:15:01;;;;;;;10.27;1.67;;;12.90;99.90;;;;;;5029116;27;20049;-74
2022/07/08 02:17:29;;;;;;;9.30;1.58;;;13.00;99.90;;;;;;5026486;28;20394;-75
2022/07/08 02:19:55;;;;;;;11.23;1.88;;;12.90;99.90;;;;;;5028705;28;20124;-74
2022/07/08 02:22:21;;;;;;;7.72;1.20;;;12.90;99.90;;;;;;5014961;28;20124;-74
2022/07/08 02:24:47;;;;;;;9.68;1.38;;;12.80;99.90;;;;;;5029436;28;20044;-74
2022/07/08 02:27:13;;;;;;;9.18;1.40;;;12.90;99.90;;;;;;5010274;28;20587;-74
2022/07/08 02:29:39;;;;;;;8.57;1.85;;;12.80;99.90;;;;;;5011144;28;20045;-74
2022/07/08 02:32:05;;;;;;;7.50;1.52;;;12.80;99.90;;;;;;5028968;28;20101;-74
2022/07/08 02:34:31;;;;;;;7.90;1.23;;;12.80;99.90;;;;;;5026577;28;20123;-74
2022/07/08 02:36:57;;;;;;;12.27;1.55;;;12.80;99.90;;;;;;5047221;28;20037;-74
2022/07/08 02:39:23;;;;;;;8.27;1.65;;;12.70;99.90;;;;;;5027367;28;20139;-74
2022/07/08 02:41:49;;;;;;;6.95;1.35;;;12.70;99.90;;;;;;5010947;28;20044;-74
2022/07/08 02:44:16;;;;;;;7.25;1.55;;;12.70;99.90;;;;;;5010894;27;20480;-73
2022/07/08 02:46:42;;;;;;;10.45;1.33;;;12.60;99.90;;;;;;5045663;28;20036;-74
2022/07/08 02:49:11;;;;;;;7.93;1.75;;;12.60;99.90;;;;;;5026333;28;20037;-74
2022/07/08 02:51:37;;;;;;;9.23;1.58;;;12.50;99.90;;;;;;5009885;28;20424;-73
2022/07/08 02:54:04;;;;;;;7.68;1.67;;;12.50;99.90;;;;;;5026389;28;20041;-75
2022/07/08 02:56:31;;;;;;;9.02;1.60;;;12.40;99.90;;;;;;5023148;28;20041;-74
2022/07/08 02:58:57;;;;;;;9.20;1.50;;;12.40;99.90;;;;;;5046506;27;20509;-74
2022/07/08 03:01:23;;;;;;;8.07;1.63;;;12.40;99.90;;;;;;5044251;27;20045;-74
2022/07/08 03:03:49;;;;;;;7.22;1.40;;;12.20;99.90;;;;;;5010429;28;20040;-75
2022/07/08 03:06:15;;;;;;;7.38;1.65;;;12.30;99.90;;;;;;5026430;28;20047;-75
2022/07/08 03:08:41;;;;;;;6.50;1.50;;;12.30;99.90;;;;;;5025492;28;20068;-74
2022/07/08 03:11:06;;;;;;;8.00;1.65;;;12.30;99.90;;;;;;5026615;28;20131;-74
2022/07/08 03:13:35;;;;;;;9.63;1.65;;;12.20;99.90;;;;;;5009768;28;20049;-75
2022/07/08 03:16:01;;;;;;;5.47;1.48;;;12.30;99.90;;;;;;5030266;27;20071;-75
2022/07/08 03:18:27;;;;;;;9.20;1.58;;;12.20;99.90;;;;;;5021951;28;20057;-75
2022/07/08 03:20:53;;;;;;;7.55;1.15;;;12.20;99.90;;;;;;5024132;28;21355;-74
2022/07/08 03:23:19;;;;;;;8.50;1.70;;;12.20;99.90;;;;;;5008997;28;20048;-74
2022/07/08 03:25:44;;;;;;;9.80;1.38;;;12.20;99.90;;;;;;5023993;28;20398;-75
2022/07/08 03:28:10;;;;;;;5.13;1.23;;;12.20;99.90;;;;;;5036812;27;20054;-74
2022/07/08 03:30:36;;;;;;;10.02;1.50;;;12.20;99.90;;;;;;5019313;27;20157;-74
2022/07/08 03:33:01;;;;;;;8.27;1.35;;;12.20;99.90;;;;;;5011686;28;20128;-74
2022/07/08 03:35:27;;;;;;;9.90;1.63;;;12.20;99.90;;;;;;5028863;27;20037;-74
2022/07/08 03:37:53;;;;;;;7.95;1.92;;;12.20;99.90;;;;;;5017944;28;20044;-74
2022/07/08 03:43:03;;;;;;;9.90;1.60;;;12.20;99.90;;;;;;5018837;28;20410;-74
2022/07/08 03:45:29;;;;;;;7.68;1.48;;;12.20;99.90;;;;;;5006484;28;20041;-75
2022/07/08 03:47:56;;;;;;;10.75;1.65;;;12.20;99.90;;;;;;5026721;28;20140;-74
2022/07/08 03:50:25;;;;;;;10.48;1.80;;;12.30;99.90;;;;;;5010711;28;20037;-74
2022/07/08 03:52:51;;;;;;;9.45;1.85;;;12.30;99.90;;;;;;5018097;28;20069;-74
2022/07/08 03:55:17;;;;;;;9.35;1.75;;;12.30;99.90;;;;;;5018243;28;20413;-74
2022/07/08 03:57:43;;;;;;;5.78;1.20;;;12.30;99.90;;;;;;5012039;28;20044;-74
2022/07/08 04:00:09;;;;;;;8.80;1.83;;;12.30;99.90;;;;;;5008100;28;20037;-74
2022/07/08 04:02:35;;;;;;;11.15;2.13;;;12.30;99.90;;;;;;5024484;28;20302;-74
2022/07/08 04:05:01;;;;;;;6.70;1.52;;;12.40;99.90;;;;;;5021609;28;20071;-73
2022/07/08 04:07:26;;;;;;;11.57;1.80;;;12.30;99.90;;;;;;5019680;28;20034;-74
2022/07/08 04:09:52;;;;;;;10.05;1.30;;;12.40;99.90;;;;;;5017102;27;20045;-74
2022/07/08 04:12:18;;;;;;;6.63;1.63;;;12.50;99.90;;;;;;5003781;28;20041;-74
2022/07/08 04:14:44;;;;;;;9.65;1.40;;;12.60;99.90;;;;;;5002927;28;20053;-74
2022/07/08 04:17:10;;;;;;;8.73;1.73;;;12.70;99.90;;;;;;5020062;28;20045;-75
2022/07/08 04:19:36;;;;;;;7.45;1.48;;;12.80;99.90;;;;;;5015650;28;20069;-74
2022/07/08 04:22:01;;;;;;;10.88;1.92;;;12.90;99.90;;;;;;5023858;27;20077;-74
2022/07/08 04:24:27;;;;;;;13.20;1.67;;;13.00;99.90;;;;;;5015560;28;20052;-74
2022/07/08 04:26:53;;;;;;;10.23;1.98;;;13.00;99.90;;;;;;4999955;28;20034;-74
2022/07/08 04:29:19;;;;;;;9.60;1.70;;;13.00;99.90;;;;;;5002496;28;20045;-74
2022/07/08 04:31:45;;;;;;;10.05;2.00;;;13.10;99.90;;;;;;5018004;28;20042;-75
2022/07/08 04:34:11;;;;;;;6.28;1.50;;;13.10;99.90;;;;;;5000767;28;20073;-74
2022/07/08 04:36:36;;;;;;;6.65;1.80;;;13.20;99.90;;;;;;5025505;27;20483;-74
2022/07/08 04:39:02;;;;;;;8.23;2.15;;;13.30;99.90;;;;;;4998188;28;20082;-74
2022/07/08 04:41:28;;;;;;;11.15;2.00;;;13.30;99.90;;;;;;5017774;28;20037;-74
2022/07/08 04:43:53;;;;;;;13.02;1.55;;;13.40;99.90;;;;;;5035611;28;20132;-74
2022/07/08 04:46:19;;;;;;;9.80;1.95;;;13.40;99.90;;;;;;5030194;27;20037;-74
2022/07/08 04:48:45;;;;;;;11.18;2.20;;;13.40;99.90;;;;;;5021647;27;20057;-74
2022/07/08 04:51:10;;;;;;;11.43;2.22;;;13.50;99.90;;;;;;5015283;28;20037;-74
2022/07/08 04:53:36;;;;;;;9.18;1.58;;;13.60;99.90;;;;;;5020326;28;20041;-74
2022/07/08 04:56:02;;;;;;;9.80;2.38;;;13.70;99.90;;;;;;5041732;27;20045;-73
2022/07/08 04:58:28;;;;;;;11.75;1.73;;;13.70;99.90;;;;;;5030863;28;20033;-74
2022/07/08 05:00:53;;;;;;;10.93;2.20;;;13.70;99.90;;;;;;5034165;28;20055;-74
2022/07/08 05:03:19;;;;;;;10.52;1.83;;;13.80;99.90;;;;;;5019163;28;20033;-73
2022/07/08 05:05:45;;;;;;;6.35;1.90;;;14.00;99.90;;;;;;5013358;28;20050;-73
2022/07/08 05:08:10;;;;;;;11.95;1.90;;;14.20;99.90;;;;;;5020877;27;20413;-74
2022/07/08 05:10:36;;;;;;;12.15;1.90;;;14.50;99.90;;;;;;5032213;28;20041;-74
2022/07/08 05:13:05;;;;;;;12.23;2.50;;;14.90;99.90;;;;;;5026572;27;20091;-73
2022/07/08 05:15:31;;;;;;;9.68;2.03;;;16.40;99.90;;;;;;5019512;27;20056;-73
2022/07/08 05:17:57;;;;;;;9.77;1.95;;;18.30;99.90;;;;;;5042783;27;20244;-74
2022/07/08 05:20:23;;;;;;;14.02;2.47;;;19.40;99.90;;;;;;5039675;27;20101;-74
2022/07/08 05:22:48;;;;;;;9.82;1.80;;;20.90;99.90;;;;;;5027272;27;20037;-74
2022/07/08 05:25:14;;;;;;;7.03;1.70;;;21.90;99.90;;;;;;5018176;27;20506;-73
2022/07/08 05:27:40;;;;;;;9.57;1.58;;;23.00;99.90;;;;;;5063250;27;20041;-74
2022/07/08 05:30:08;;;;;;;8.02;1.50;;;24.00;99.90;;;;;;5042997;27;20407;-75
2022/07/08 05:32:35;;;;;;;9.32;1.58;;;23.90;99.90;;;;;;5025045;27;20444;-74
2022/07/08 05:35:01;;;;;;;9.68;1.48;;;22.80;99.90;;;;;;5008972;27;20444;-72
2022/07/08 05:37:29;;;;;;;11.25;1.50;;;21.90;99.90;;;;;;5031672;27;20504;-72
2022/07/08 05:39:55;;;;;;;10.93;1.65;;;21.10;99.90;;;;;;5060508;27;20045;-74
2022/07/08 05:42:20;;;;;;;9.57;1.40;;;20.30;99.90;;;;;;5011218;27;20041;-73
2022/07/08 05:44:46;;;;;;;11.32;1.63;;;19.70;99.90;;;;;;5029226;27;20141;-73
2022/07/08 05:47:13;;;;;;;6.65;1.40;;;19.20;99.90;;;;;;5025784;27;20045;-73
2022/07/08 05:49:43;;;;;;;9.80;2.58;;;18.80;99.90;;;;;;5031311;27;20033;-73
2022/07/08 05:52:09;;;;;;;10.05;1.80;;;18.50;99.90;;;;;;5026026;27;20078;-73
2022/07/08 05:54:35;;;;;;;9.98;1.70;;;18.10;99.90;;;;;;5021975;27;20435;-74
2022/07/08 05:57:01;;;;;;;11.52;1.77;;;17.90;99.90;;;;;;5041235;27;20045;-73
2022/07/08 05:59:27;;;;;;;11.23;2.25;;;17.80;99.90;;;;;;5042020;27;20045;-74
2022/07/08 06:01:54;;;;;;;10.45;2.15;;;17.70;99.90;;;;;;5044481;27;20087;-73
2022/07/08 06:04:19;;;;;;;8.48;1.50;;;17.70;99.90;;;;;;5034547;27;20056;-74
2022/07/08 06:06:45;;;;;;;14.35;1.83;;;17.60;99.90;;;;;;5031995;27;20905;-74
2022/07/08 06:09:11;;;;;;;12.43;2.38;;;17.60;99.90;;;;;;5013066;28;20052;-74
2022/07/08 06:11:37;;;;;;;13.23;2.55;;;17.60;99.90;;;;;;5046141;27;20040;-73
2022/07/08 06:14:03;;;;;;;10.18;1.95;;;17.50;99.90;;;;;;5042871;27;20411;-73
2022/07/08 06:16:29;;;;;;;11.73;2.05;;;17.50;99.90;;;;;;4985631;28;20057;-74
2022/07/08 06:18:55;;;;;;;12.18;1.60;;;17.40;99.90;;;;;;4986714;28;20053;-73
2022/07/08 06:21:20;;;;;;;8.05;1.48;;;17.30;99.90;;;;;;5009479;28;20073;-74
2022/07/08 06:23:46;;;;;;;9.40;1.80;;;17.20;99.90;;;;;;5002328;28;20045;-73
2022/07/08 06:26:12;;;;;;;14.27;2.47;;;17.10;99.90;;;;;;4984458;28;20115;-73
2022/07/08 06:28:37;;;;;;;13.32;2.25;;;17.10;99.90;;;;;;4987386;28;20361;-73
2022/07/08 06:31:03;;;;;;;11.57;2.00;;;17.10;99.90;;;;;;5003251;28;20066;-75
2022/07/08 06:33:29;;;;;;;10.75;1.80;;;17.00;99.90;;;;;;5001019;28;20406;-73
2022/07/08 06:35:55;;;;;;;11.85;2.85;;;17.10;99.90;;;;;;5000409;28;20149;-73
2022/07/08 06:38:20;;;;;;;9.73;2.05;;;17.10;99.90;;;;;;5002409;28;20041;-73
2022/07/08 06:40:46;;;;;;;11.68;1.92;;;17.30;99.90;;;;;;5002022;28;20330;-74
2022/07/08 06:43:12;;;;;;;16.40;2.85;;;17.40;99.90;;;;;;4999493;28;20030;-73
2022/07/08 06:45:37;;;;;;;10.65;1.88;;;17.40;99.90;;;;;;4995475;28;20102;-73
2022/07/08 06:48:04;;;;;;;12.70;2.25;;;17.70;99.90;;;;;;5001021;28;20414;-74
2022/07/08 06:50:30;;;;;;;6.10;1.30;;;17.90;99.90;;;;;;5002957;28;20049;-73
2022/07/08 06:52:59;;;;;;;12.55;2.17;;;18.10;99.90;;;;;;5004142;28;20402;-73
2022/07/08 06:55:25;;;;;;;12.43;2.10;;;18.30;99.90;;;;;;4996273;28;20046;-73
2022/07/08 06:57:50;;;;;;;9.35;1.60;;;18.40;99.90;;;;;;4993982;28;20095;-73
2022/07/08 07:00:16;;;;;;;10.65;2.05;;;18.60;99.90;;;;;;4990225;28;20361;-73
2022/07/08 07:02:42;;;;;;;7.40;1.80;;;18.70;99.90;;;;;;5001962;28;20041;-72
2022/07/08 07:05:08;;;;;;;9.30;1.55;;;18.80;99.90;;;;;;4998320;28;20045;-74
2022/07/08 07:07:35;;;;;;;12.30;1.90;;;18.90;99.90;;;;;;4996171;28;20065;-74
2022/07/08 07:10:01;;;;;;;9.13;1.80;;;19.00;99.90;;;;;;4999267;28;20549;-73
2022/07/08 07:12:27;;;;;;;10.52;1.80;;;19.00;99.90;;;;;;5030496;27;20130;-72
2022/07/08 07:14:53;;;;;;;9.32;1.90;;;19.20;99.90;;;;;;5106382;27;20124;-73
2022/07/08 07:17:20;;;;;;;9.27;1.50;;;19.50;99.90;;;;;;5016094;28;20405;-74
2022/07/08 07:19:47;;;;;;;9.00;1.67;;;19.70;99.90;;;;;;5020408;28;20033;-73
2022/07/08 07:22:13;;;;;;;9.80;2.05;;;19.90;99.90;;;;;;5019121;28;20424;-73
2022/07/08 07:24:39;;;;;;;8.70;1.73;;;20.00;99.90;;;;;;5023540;28;20037;-72
2022/07/08 07:27:05;;;;;;;11.25;1.88;;;20.00;99.90;;;;;;5010431;28;20049;-74
2022/07/08 07:29:31;;;;;;;11.32;2.20;;;20.10;99.90;;;;;;5037976;28;20044;-73
2022/07/08 07:31:57;;;;;;;10.75;1.80;;;20.10;99.90;;;;;;5042045;28;20052;-74
2022/07/08 07:34:23;;;;;;;7.82;1.73;;;20.10;99.90;;;;;;5010151;28;20561;-74
2022/07/08 07:36:49;;;;;;;9.48;2.63;;;20.20;99.90;;;;;;5054233;27;20096;-73
2022/07/08 07:39:15;;;;;;;8.32;2.00;;;20.20;99.90;;;;;;5040550;27;20045;-73
2022/07/08 07:41:40;;;;;;;7.15;1.67;;;20.30;99.90;;;;;;5079126;27;20044;-73
2022/07/08 07:44:06;;;;;;;8.27;1.80;;;20.40;99.90;;;;;;5051621;27;20493;-74
2022/07/08 07:46:32;;;;;;;11.80;2.33;;;20.50;99.90;;;;;;5026879;28;20037;-74
2022/07/08 07:48:58;;;;;;;8.95;1.60;;;20.60;99.90;;;;;;5024319;28;20393;-75
2022/07/08 07:51:24;;;;;;;8.10;1.65;;;20.60;99.90;;;;;;5025253;28;20504;-73
2022/07/08 07:53:49;;;;;;;8.27;1.63;;;20.70;99.90;;;;;;5023329;27;20044;-73
2022/07/08 07:56:15;;;;;;;9.63;2.00;;;20.80;99.90;;;;;;5057068;27;20420;-73
2022/07/08 07:58:41;;;;;;;10.02;2.22;;;20.90;99.90;;;;;;5025694;27;20070;-74
2022/07/08 08:01:06;;;;;;;7.50;1.80;;;20.90;99.90;;;;;;5043239;27;20441;-74
2022/07/08 08:03:33;;;;;;;10.38;2.13;;;21.00;99.90;;;;;;5022664;27;20041;-74
2022/07/08 08:06:00;;;;;;;11.88;1.77;;;20.90;99.90;;;;;;5017989;28;20099;-74
2022/07/08 08:08:26;;;;;;;14.15;2.13;;;21.00;99.90;;;;;;4998543;28;20591;-73
2022/07/08 08:10:53;;;;;;;10.15;1.70;;;21.00;99.90;;;;;;5020088;28;20518;-73
2022/07/08 08:13:19;;;;;;;11.23;1.88;;;20.90;99.90;;;;;;5002992;28;20048;-72
2022/07/08 08:15:45;;;;;;;11.55;2.08;;;20.80;99.90;;;;;;5007000;28;20541;-74
2022/07/08 08:18:12;;;;;;;12.73;1.83;;;20.70;99.90;;;;;;5025320;28;20140;-73
2022/07/08 08:20:38;;;;;;;6.40;1.77;;;20.60;99.90;;;;;;5038546;27;20477;-73
2022/07/08 08:23:04;;;;;;;7.75;1.80;;;20.50;99.90;;;;;;5034248;28;20059;-73
2022/07/08 08:25:30;;;;;;;9.15;1.75;;;20.40;99.90;;;;;;5044488;28;20489;-75
2022/07/08 08:27:57;;;;;;;8.38;2.08;;;20.30;99.90;;;;;;5044728;27;20047;-73
2022/07/08 08:30:23;;;;;;;9.57;2.28;;;20.30;99.90;;;;;;5061909;27;20048;-73
2022/07/08 08:32:49;;;;;;;7.78;1.55;;;20.20;99.90;;;;;;5020254;28;20036;-75
2022/07/08 08:35:15;;;;;;;7.38;1.40;;;20.20;99.90;;;;;;5043961;27;20093;-73
2022/07/08 08:37:41;;;;;;;7.93;1.75;;;20.20;99.90;;;;;;5025652;27;20044;-74
2022/07/08 08:40:12;;;;;;;9.93;1.60;;;20.20;99.90;;;;;;5040858;27;20461;-73
2022/07/08 08:42:39;;;;;;;;;;;20.30;99.90;;;;;;5005207;27;20045;-72
2022/07/08 08:45:05;;;;;;;9.68;1.67;;;20.40;99.90;;;;;;5044143;27;20328;-73
2022/07/08 08:47:33;;;;;;;7.78;1.70;;;20.50;99.90;;;;;;5029266;27;20081;-73
2022/07/08 08:52:50;;;;;;;7.85;1.63;;;20.70;99.90;;;;;;5024737;28;20056;-73
2022/07/08 08:55:32;;;;;;;7.10;1.40;;;20.80;99.90;;;;;;5023449;28;20049;-73
2022/07/08 08:58:03;;;;;;;9.75;1.80;;;20.90;99.90;;;;;;5041872;28;20129;-73
2022/07/08 09:00:29;;;;;;;;;;;20.90;99.90;;;;;;5024317;28;20140;-73
2022/07/08 09:02:55;;;;;;;8.02;2.13;;;21.00;99.90;;;;;;5028105;27;19924;-74
2022/07/08 09:05:23;;;;;;;8.43;1.52;;;20.90;99.90;;;;;;5025198;28;20076;-73
2022/07/08 09:07:49;;;;;;;7.25;1.48;;;21.00;99.90;;;;;;5036573;28;20049;-73
2022/07/08 09:10:16;;;;;;;10.30;1.92;;;21.00;99.90;;;;;;5024933;28;20053;-74
2022/07/08 09:13:11;;;;;;;5.50;1.30;;;20.90;99.90;;;;;;5027073;28;20526;-74
2022/07/08 09:15:41;;;;;;;6.07;1.42;;;20.90;99.90;;;;;;5041881;27;20097;-73
2022/07/08 09:18:18;;;;;;;5.18;1.58;;;20.90;99.90;;;;;;5026844;28;20040;-73
2022/07/08 09:20:52;;;;;;;10.15;2.25;;;21.10;99.90;;;;;;5029168;27;20041;-73
2022/07/08 09:23:19;;;;;;;9.50;1.90;;;21.40;99.90;;;;;;5029664;28;20309;-73
2022/07/08 09:26:05;;;;;;;7.90;1.63;;;21.60;99.90;;;;;;5042904;27;20037;-74
2022/07/08 09:28:43;;;;;;;8.90;1.80;;;21.70;99.90;;;;;;5027929;27;20043;-72
2022/07/08 09:31:14;;;;;;;9.70;1.67;;;21.90;99.90;;;;;;5026898;28;20048;-73
2022/07/08 09:33:40;;;;;;;9.15;1.48;;;22.00;99.90;;;;;;5027287;28;20040;-73
2022/07/08 09:36:08;;;;;;;7.93;1.60;;;22.10;99.90;;;;;;5061848;27;20052;-72
2022/07/08 09:38:37;;;;;;;7.40;1.67;;;22.20;99.90;;;;;;5029004;28;20405;-73
2022/07/08 09:41:12;;;;;;;7.95;1.80;;;22.30;99.90;;;;;;5038849;28;20042;-73
2022/07/08 09:43:48;;;;;;;10.63;1.80;;;22.30;99.90;;;;;;5028759;27;20437;-72
2022/07/08 09:46:13;;;;;;;7.47;1.80;;;22.30;99.90;;;;;;5045295;27;20148;-72
2022/07/08 09:48:39;;;;;;;8.00;2.08;;;22.30;99.90;;;;;;5025851;28;20120;-73
2022/07/08 09:51:08;;;;;;;6.07;1.70;;;22.30;99.90;;;;;;5030448;28;20049;-73
2022/07/08 09:53:39;;;;;;;6.85;1.63;;;22.40;99.90;;;;;;5028659;28;20040;-73
2022/07/08 09:56:06;;;;;;;7.38;1.83;;;22.50;99.90;;;;;;5032621;27;20056;-72
2022/07/08 09:58:33;;;;;;;6.50;1.60;;;22.70;99.90;;;;;;5027699;27;20043;-74
2022/07/08 10:01:00;;;;;;;10.43;1.70;;;22.90;99.90;;;;;;5044196;27;20048;-74
2022/07/08 10:03:27;;;;;;;7.15;1.80;;;23.10;99.90;;;;;;5063903;27;20048;-74
2022/07/08 10:05:54;;;;;;;7.82;1.63;;;23.20;99.90;;;;;;5059824;27;20053;-72
2022/07/08 10:08:23;;;;;;;8.63;2.05;;;23.20;99.90;;;;;;5026864;28;20517;-71
2022/07/08 10:10:49;;;;;;;10.43;2.15;;;23.10;99.90;;;;;;5028436;27;20576;-72
2022/07/08 10:13:18;;;;;;;9.13;1.60;;;23.00;99.90;;;;;;5049895;27;20067;-72
2022/07/08 10:15:45;;;;;;;7.45;2.28;;;23.00;99.90;;;;;;5063695;27;20052;-72
2022/07/08 10:18:42;;;;;;;7.82;1.85;;;23.10;99.90;;;;;;5047342;27;20045;-72
2022/07/08 10:21:10;;;;;;;8.85;1.70;;;23.30;99.90;;;;;;5019942;27;20056;-72
2022/07/08 10:23:38;;;;;;;6.88;1.65;;;23.40;99.90;;;;;;5037625;27;20442;-73
2022/07/08 10:26:06;;;;;;;7.22;1.63;;;23.40;99.90;;;;;;5029362;27;20385;-73
2022/07/08 10:28:37;;;;;;;8.45;1.60;;;23.40;99.90;;;;;;5045872;27;20655;-72
2022/07/08 10:31:17;;;;;;;8.70;1.52;;;23.20;99.90;;;;;;5009963;28;20397;-72
2022/07/08 10:33:46;;;;;;;7.35;1.50;;;23.10;99.90;;;;;;5008369;28;20037;-73
2022/07/08 10:36:12;;;;;;;6.63;1.80;;;22.90;99.90;;;;;;5009365;28;20464;-73
2022/07/08 10:38:40;;;;;;;7.55;1.90;;;22.80;99.90;;;;;;5015002;27;20304;-73
2022/07/08 10:41:26;;;;;;;11.18;2.30;;;22.80;99.90;;;;;;5042984;27;20049;-73
2022/07/08 10:43:54;;;;;;;7.15;1.67;;;22.70;99.90;;;;;;5065752;27;20052;-72
2022/07/08 10:46:21;;;;;;;7.43;1.85;;;22.70;99.90;;;;;;5026794;27;20489;-73
2022/07/08 10:49:01;;;;;;;8.32;2.00;;;22.80;99.90;;;;;;5063083;27;20041;-72
2022/07/08 10:51:28;;;;;;;9.40;1.60;;;22.90;99.90;;;;;;5048601;27;20116;-74
2022/07/08 10:53:58;;;;;;;8.13;2.00;;;22.90;99.90;;;;;;5062434;27;20493;-72
2022/07/08 10:56:56;;;;;;;9.27;1.63;;;23.00;99.90;;;;;;5024783;27;20053;-72
2022/07/08 10:59:23;;;;;;;7.85;1.92;;;23.20;99.90;;;;;;5023122;27;20083;-73
2022/07/08 11:01:59;;;;;;;7.07;1.70;;;23.30;99.90;;;;;;5022150;27;20445;-76
2022/07/08 11:04:43;;;;;;;8.32;1.45;;;23.20;99.90;;;;;;5018229;27;20527;-75
2022/07/08 11:07:18;;;;;;;8.45;1.80;;;23.10;99.90;;;;;;5020622;27;20041;-74
2022/07/08 11:09:45;;;;;;;9.45;1.73;;;23.30;99.90;;;;;;5039386;27;20059;-75
2022/07/08 11:12:15;;;;;;;9.85;1.40;;;23.60;99.90;;;;;;5025504;27;20056;-75
2022/07/08 11:14:46;;;;;;;9.40;2.00;;;23.90;99.90;;;;;;5027095;28;20443;-77
2022/07/08 11:17:16;;;;;;;5.57;1.33;;;24.20;99.90;;;;;;5030099;27;20445;-76
2022/07/08 11:19:42;;;;;;;8.25;2.42;;;24.20;99.90;;;;;;5042394;27;20056;-74
2022/07/08 11:22:12;;;;;;;10.52;2.30;;;24.30;99.90;;;;;;5041219;28;20057;-75
2022/07/08 11:24:42;;;;;;;9.02;1.77;;;24.30;99.90;;;;;;5037516;27;20343;-76
2022/07/08 11:27:08;;;;;;;9.82;2.05;;;24.20;99.90;;;;;;5015120;27;20658;-77
2022/07/08 11:29:35;;;;;;;6.10;1.50;;;24.10;99.90;;;;;;5010429;28;20064;-74
2022/07/08 11:32:03;;;;;;;8.30;1.65;;;24.10;99.90;;;;;;5012944;27;20064;-73
2022/07/08 11:34:29;;;;;;;8.20;2.03;;;24.00;99.90;;;;;;5035552;27;20048;-75
2022/07/08 11:36:59;;;;;;;8.23;1.92;;;23.90;99.90;;;;;;5017811;27;20113;-75
2022/07/08 11:39:26;;;;;;;6.13;1.58;;;23.80;99.90;;;;;;5025832;27;20051;-76
2022/07/08 11:41:52;;;;;;;6.60;1.90;;;23.90;99.90;;;;;;5001504;28;20047;-75
2022/07/08 11:44:20;;;;;;;8.38;2.15;;;24.10;99.90;;;;;;5045561;27;20191;-74
2022/07/08 11:46:48;;;;;;;8.40;2.17;;;24.20;99.90;;;;;;5000151;28;20536;-75
2022/07/08 11:49:15;;;;;;;10.50;2.20;;;24.10;99.90;;;;;;5000283;28;20049;-76
2022/07/08 11:51:45;;;;;;;9.93;2.50;;;24.00;99.90;;;;;;5013187;27;20038;-74
2022/07/08 11:54:15;;;;;;;8.43;2.10;;;23.80;99.90;;;;;;5010689;27;20105;-74
2022/07/08 11:56:41;;;;;;;8.80;2.20;;;24.00;99.90;;;;;;5036268;27;20883;-74
2022/07/08 11:59:08;;;;;;;8.73;2.08;;;23.90;99.90;;;;;;5020978;27;20080;-73
2022/07/08 12:01:35;;;;;;;11.43;2.60;;;23.80;99.90;;;;;;5041692;27;20042;-74
2022/07/08 12:04:06;;;;;;;10.18;2.45;;;23.60;99.90;;;;;;5012601;27;20191;-74
2022/07/08 12:06:32;;;;;;;12.73;2.58;;;23.40;99.90;;;;;;4994134;28;20405;-73
2022/07/08 12:08:58;;;;;;;10.25;2.60;;;23.40;99.90;;;;;;5027463;27;20494;-73
2022/07/08 12:11:25;;;;;;;10.68;2.53;;;23.40;99.90;;;;;;5031384;27;20037;-73
2022/07/08 12:13:55;;;;;;;11.93;3.03;;;23.70;99.90;;;;;;5013288;27;20050;-74
2022/07/08 12:16:34;;;;;;;8.38;2.67;;;24.00;99.90;;;;;;5014724;27;21358;-74
2022/07/08 12:19:02;;;;;;;8.00;2.28;;;24.20;99.90;;;;;;5003099;27;20118;-73
2022/07/08 12:21:28;;;;;;;8.18;2.00;;;24.20;99.90;;;;;;5027937;27;20044;-73
2022/07/08 12:23:57;;;;;;;13.75;3.15;;;24.20;99.90;;;;;;5018626;28;20037;-75
2022/07/08 12:26:23;;;;;;;9.95;2.88;;;24.10;99.90;;;;;;5037219;27;20040;-74
2022/07/08 12:28:48;;;;;;;10.50;2.55;;;23.90;99.90;;;;;;5057035;27;20037;-73
2022/07/08 12:31:33;;;;;;;9.43;2.30;;;23.80;99.90;;;;;;5039095;27;20045;-73
2022/07/08 12:34:04;;;;;;;16.40;2.80;;;23.60;99.90;;;;;;5039307;28;20041;-73
2022/07/08 12:36:30;;;;;;;8.10;2.20;;;23.40;99.90;;;;;;5035385;28;20044;-73
2022/07/08 12:38:56;;;;;;;11.02;2.58;;;23.40;99.90;;;;;;5021072;28;20133;-72
2022/07/08 12:41:23;;;;;;;10.88;2.22;;;23.30;99.90;;;;;;5005473;28;20420;-72
2022/07/08 12:43:48;;;;;;;8.40;2.13;;;23.50;99.90;;;;;;5018321;27;20339;-73
2022/07/08 12:46:14;;;;;;;11.60;2.65;;;23.50;99.90;;;;;;5017198;28;20554;-73
2022/07/08 12:48:40;;;;;;;9.18;2.53;;;23.60;99.90;;;;;;5040208;27;20375;-74